Time;durP1;ratioP1;P1;durP2;ratioP2;P2;SDS_P1;SDS_P2;PMS_P1;PMS_P2;Temp;Humidity;BMP_temperature;BMP_pressure;BME280_temperature;BME280_humidity;BME280_pressure;Samples;Min_cycle;Max_cycle;Signal;HPM_P1;HPM_P2
2021/01/05 00:00:30;;;;;;;5.60;3.30;;;5.30;76.10;;;;;;5046976;28;20465;-68
2021/01/05 00:02:56;;;;;;;4.00;2.90;;;5.30;76.10;;;;;;5045659;28;20021;-69
2021/01/05 00:05:23;;;;;;;5.70;3.45;;;5.30;76.10;;;;;;5046624;28;20037;-69
2021/01/05 00:07:50;;;;;;;16.52;3.38;;;5.30;76.10;;;;;;5047230;28;20037;-69
2021/01/05 00:10:17;;;;;;;8.75;2.95;;;5.30;76.10;;;;;;5046532;28;20025;-69
2021/01/05 00:12:43;;;;;;;5.90;3.70;;;5.30;76.20;;;;;;5046805;28;20504;-70
2021/01/05 00:15:10;;;;;;;11.90;4.03;;;5.30;76.10;;;;;;5046559;28;20480;-69
2021/01/05 00:17:36;;;;;;;4.30;3.10;;;5.20;76.00;;;;;;5046812;28;20407;-70
2021/01/05 00:20:29;;;;;;;4.45;3.08;;;5.30;76.20;;;;;;5045994;28;20032;-70
2021/01/05 00:22:55;;;;;;;5.53;3.30;;;5.20;76.00;;;;;;5041841;28;20425;-70
2021/01/05 00:25:22;;;;;;;8.85;3.83;;;5.20;76.00;;;;;;5046176;28;20025;-73
2021/01/05 00:27:48;;;;;;;4.97;3.33;;;5.20;76.00;;;;;;5045018;28;20129;-69
2021/01/05 00:30:19;;;;;;;4.78;3.17;;;5.20;76.00;;;;;;5044790;28;20370;-70
2021/01/05 00:32:47;;;;;;;6.38;3.47;;;5.20;76.00;;;;;;5046292;28;20057;-70
2021/01/05 00:35:20;;;;;;;4.05;3.13;;;5.20;76.00;;;;;;5046036;28;20033;-70
2021/01/05 00:37:47;;;;;;;6.10;3.20;;;5.20;76.00;;;;;;5044978;28;20029;-70
2021/01/05 00:40:15;;;;;;;5.72;2.72;;;5.20;76.00;;;;;;5044548;28;20033;-70
2021/01/05 00:42:42;;;;;;;4.82;3.40;;;5.20;76.00;;;;;;5045781;28;20033;-70
2021/01/05 00:45:09;;;;;;;8.57;3.28;;;5.20;76.00;;;;;;5045929;28;20103;-70
2021/01/05 00:47:36;;;;;;;7.40;3.50;;;5.20;76.00;;;;;;5045420;28;20053;-70
2021/01/05 00:50:04;;;;;;;3.17;2.72;;;5.20;76.00;;;;;;5045463;28;20025;-70
2021/01/05 00:52:30;;;;;;;3.95;3.00;;;5.20;76.00;;;;;;5045580;28;20043;-69
2021/01/05 00:54:56;;;;;;;3.95;2.70;;;5.20;76.00;;;;;;5046174;28;20029;-69
2021/01/05 00:57:22;;;;;;;4.22;3.35;;;5.20;76.00;;;;;;5044243;28;20164;-69
2021/01/05 00:59:50;;;;;;;5.10;3.20;;;5.20;76.00;;;;;;5043953;28;20503;-69
2021/01/05 01:02:17;;;;;;;2.78;2.58;;;5.20;76.00;;;;;;5044497;28;20089;-70
2021/01/05 01:04:46;;;;;;;5.40;2.92;;;5.20;76.00;;;;;;5044167;28;20040;-70
2021/01/05 01:07:13;;;;;;;3.90;2.88;;;5.20;76.00;;;;;;5043890;28;20037;-70
2021/01/05 01:09:39;;;;;;;5.68;3.05;;;5.20;76.00;;;;;;5044378;28;20032;-70
2021/01/05 01:12:16;;;;;;;3.85;2.78;;;5.20;76.00;;;;;;5045628;28;20033;-70
2021/01/05 01:14:45;;;;;;;4.88;2.83;;;5.20;76.00;;;;;;5044441;28;20032;-78
2021/01/05 01:17:13;;;;;;;6.65;3.25;;;5.10;75.80;;;;;;5043840;28;20029;-70
2021/01/05 01:19:39;;;;;;;3.83;3.20;;;5.20;76.00;;;;;;5044161;28;20035;-70
2021/01/05 01:22:07;;;;;;;7.00;3.45;;;5.10;75.90;;;;;;5044598;28;20024;-72
2021/01/05 01:24:35;;;;;;;3.60;2.45;;;5.10;75.80;;;;;;5044208;28;20473;-69
2021/01/05 01:27:01;;;;;;;5.10;3.90;;;5.20;76.00;;;;;;5044275;28;20131;-70
2021/01/05 01:29:28;;;;;;;5.70;3.05;;;5.20;76.00;;;;;;5043417;28;20025;-70
2021/01/05 01:31:56;;;;;;;6.78;3.25;;;5.10;75.90;;;;;;5044249;28;20040;-70
2021/01/05 01:34:24;;;;;;;3.65;2.90;;;5.20;76.00;;;;;;5027114;28;20124;-69
2021/01/05 01:36:54;;;;;;;4.97;3.28;;;5.20;76.00;;;;;;5027019;28;20536;-73
2021/01/05 01:39:21;;;;;;;6.32;2.83;;;5.10;75.80;;;;;;5045338;28;20029;-70
2021/01/05 01:41:47;;;;;;;4.03;3.05;;;5.10;75.80;;;;;;5043529;28;20055;-70
2021/01/05 01:44:22;;;;;;;8.68;3.10;;;5.10;75.80;;;;;;5043104;28;20448;-70
2021/01/05 01:46:52;;;;;;;4.28;3.08;;;5.20;76.00;;;;;;5043745;28;20151;-70
2021/01/05 01:49:18;;;;;;;7.55;2.97;;;5.20;75.90;;;;;;5044995;28;20032;-70
2021/01/05 01:51:45;;;;;;;8.82;3.65;;;5.20;75.90;;;;;;5043374;28;20035;-70
2021/01/05 01:54:47;;;;;;;5.00;2.97;;;5.20;75.90;;;;;;5042351;28;20536;-70
2021/01/05 01:57:29;;;;;;;8.35;3.22;;;5.20;76.00;;;;;;4993070;28;20049;-70
2021/01/05 02:00:29;;;;;;;6.60;3.70;;;5.20;75.90;;;;;;5043211;28;20044;-77
2021/01/05 02:03:29;;;;;;;5.60;3.00;;;5.10;75.80;;;;;;5043226;28;20274;-70
2021/01/05 02:06:16;;;;;;;8.00;3.10;;;5.10;75.70;;;;;;5043429;28;20029;-70
2021/01/05 02:08:52;;;;;;;6.00;3.90;;;5.10;75.70;;;;;;5042928;28;20132;-70
2021/01/05 02:11:18;;;;;;;;;;;5.10;75.80;;;;;;5045098;28;20436;-70
2021/01/05 02:14:17;;;;;;;4.93;3.05;;;5.10;75.80;;;;;;5043234;28;19908;-73
2021/01/05 02:16:56;;;;;;;7.00;3.40;;;5.10;75.70;;;;;;5040429;28;20033;-69
2021/01/05 02:20:10;;;;;;;6.93;3.60;;;5.10;75.70;;;;;;5042802;28;20497;-76
2021/01/05 02:22:55;;;;;;;8.60;3.63;;;5.00;75.50;;;;;;5029290;28;20048;-70
2021/01/05 02:25:43;;;;;;;4.80;3.42;;;5.10;75.80;;;;;;5043169;28;20025;-70
2021/01/05 02:28:12;;;;;;;5.55;3.67;;;5.00;75.60;;;;;;5042777;28;20389;-69
2021/01/05 02:30:51;;;;;;;4.47;3.78;;;5.10;75.80;;;;;;5042393;28;20025;-69
2021/01/05 02:33:29;;;;;;;5.85;3.53;;;5.00;75.60;;;;;;5044622;28;20135;-69
2021/01/05 02:36:07;;;;;;;5.45;3.65;;;5.00;75.60;;;;;;5044254;28;20032;-69
2021/01/05 02:39:30;;;;;;;6.10;3.58;;;5.00;75.60;;;;;;5045439;28;20465;-74
2021/01/05 02:42:37;;;;;;;5.82;3.55;;;5.10;75.80;;;;;;5012445;28;20048;-70
2021/01/05 02:45:26;;;;;;;5.75;3.30;;;5.10;75.70;;;;;;5044731;28;20033;-70
2021/01/05 02:48:37;;;;;;;5.82;3.65;;;5.00;75.50;;;;;;5049398;28;20095;-70
2021/01/05 02:51:59;;;;;;;6.13;3.95;;;5.00;75.60;;;;;;5048222;28;20048;-69
2021/01/05 02:54:50;;;;;;;7.43;3.60;;;5.00;75.50;;;;;;5048899;28;20120;-70
2021/01/05 02:58:11;;;;;;;8.00;3.90;;;5.00;75.50;;;;;;5047745;28;20124;-71
2021/01/05 03:01:14;;;;;;;7.68;3.67;;;5.00;75.60;;;;;;5047581;28;20029;-69
2021/01/05 03:03:58;;;;;;;7.45;3.75;;;5.00;75.60;;;;;;5048533;28;20120;-70
2021/01/05 03:06:48;;;;;;;4.63;3.38;;;5.00;75.60;;;;;;5051140;28;20147;-70
2021/01/05 03:10:02;;;;;;;6.75;3.80;;;5.00;75.60;;;;;;5052871;28;20083;-69
2021/01/05 03:13:27;;;;;;;6.13;3.20;;;4.90;75.40;;;;;;5052724;28;20468;-70
2021/01/05 03:16:26;;;;;;;6.43;3.03;;;5.00;75.60;;;;;;5040178;28;20453;-70
2021/01/05 03:19:25;;;;;;;5.32;3.45;;;5.00;75.60;;;;;;5052765;28;20059;-70
2021/01/05 03:22:14;;;;;;;4.78;3.05;;;5.00;75.60;;;;;;5052476;28;20380;-70
2021/01/05 03:25:01;;;;;;;6.40;3.63;;;5.00;75.60;;;;;;5052475;28;20461;-70
2021/01/05 03:27:46;;;;;;;4.57;3.13;;;5.00;75.60;;;;;;5051527;28;20108;-70
2021/01/05 03:30:37;;;;;;;6.30;3.35;;;4.90;75.50;;;;;;5052076;28;20021;-70
2021/01/05 03:33:22;;;;;;;6.18;3.33;;;5.00;75.70;;;;;;5052582;28;20029;-74
2021/01/05 03:36:26;;;;;;;4.55;2.95;;;5.00;75.70;;;;;;5049433;28;20032;-70
2021/01/05 03:39:12;;;;;;;8.07;3.33;;;5.00;75.60;;;;;;5049577;28;20078;-70
2021/01/05 03:41:56;;;;;;;6.60;3.83;;;5.00;75.60;;;;;;5051853;28;20068;-73
2021/01/05 03:44:41;;;;;;;9.80;3.47;;;4.90;75.40;;;;;;5050613;28;20028;-74
2021/01/05 03:47:25;;;;;;;7.95;3.72;;;5.00;75.60;;;;;;5052284;28;20068;-74
2021/01/05 03:50:10;;;;;;;5.07;3.03;;;4.90;75.40;;;;;;5052521;28;20033;-70
2021/01/05 03:52:54;;;;;;;4.50;3.03;;;4.90;75.90;;;;;;5051565;28;20147;-72
2021/01/05 03:55:39;;;;;;;5.43;2.83;;;4.90;75.40;;;;;;5052367;28;20029;-70
2021/01/05 03:58:23;;;;;;;5.60;3.05;;;4.90;75.40;;;;;;5051811;28;20029;-70
2021/01/05 04:01:18;;;;;;;6.95;3.17;;;4.90;75.50;;;;;;5031681;28;20076;-70
2021/01/05 04:03:44;;;;;;;7.93;3.10;;;4.90;75.40;;;;;;5052072;28;20025;-70
2021/01/05 04:06:11;;;;;;;6.55;3.25;;;4.90;75.50;;;;;;5051930;28;20438;-73
2021/01/05 04:08:37;;;;;;;6.88;3.33;;;4.90;75.50;;;;;;5052095;28;20515;-69
2021/01/05 04:11:04;;;;;;;3.13;2.83;;;4.90;75.50;;;;;;5051864;28;20104;-70
2021/01/05 04:13:30;;;;;;;4.38;2.90;;;4.90;75.50;;;;;;5052004;28;20029;-71
2021/01/05 04:15:56;;;;;;;8.10;2.83;;;4.90;75.50;;;;;;5052043;28;20464;-72
2021/01/05 04:18:22;;;;;;;4.15;3.28;;;4.90;75.50;;;;;;5050567;28;20132;-71
2021/01/05 04:20:48;;;;;;;7.35;2.85;;;4.90;75.50;;;;;;5051541;28;20033;-70
2021/01/05 04:23:14;;;;;;;4.10;2.78;;;4.90;75.50;;;;;;5050887;28;20219;-71
2021/01/05 04:25:41;;;;;;;4.03;2.65;;;4.90;75.50;;;;;;5051262;28;20488;-70
2021/01/05 04:28:07;;;;;;;8.75;3.35;;;4.90;75.50;;;;;;5051394;28;20041;-71
2021/01/05 04:30:37;;;;;;;4.57;2.78;;;4.90;75.50;;;;;;5049679;28;20029;-70
2021/01/05 04:33:06;;;;;;;4.40;3.10;;;4.90;75.50;;;;;;5051473;28;20092;-70
2021/01/05 04:35:33;;;;;;;9.10;2.70;;;4.90;75.50;;;;;;5050131;28;20025;-70
2021/01/05 04:37:59;;;;;;;4.07;2.80;;;4.90;75.50;;;;;;5051141;28;20127;-79
2021/01/05 04:40:31;;;;;;;6.88;3.00;;;4.90;75.40;;;;;;5050038;28;20059;-72
2021/01/05 04:43:26;;;;;;;6.53;3.05;;;4.90;75.40;;;;;;5051101;28;20037;-70
2021/01/05 04:46:02;;;;;;;4.47;2.80;;;4.90;75.40;;;;;;5051188;28;20033;-71
2021/01/05 04:48:41;;;;;;;7.47;2.72;;;4.80;75.20;;;;;;5051228;28;20056;-70
2021/01/05 04:51:34;;;;;;;7.50;3.17;;;4.80;75.20;;;;;;5051316;28;20171;-70
2021/01/05 04:54:07;;;;;;;6.45;2.65;;;4.80;75.20;;;;;;5051333;28;20149;-70
2021/01/05 04:57:02;;;;;;;2.85;2.58;;;4.80;75.20;;;;;;5051009;28;20074;-70
2021/01/05 04:59:39;;;;;;;3.90;2.55;;;4.80;75.20;;;;;;5050759;28;20127;-70
2021/01/05 05:02:25;;;;;;;8.27;3.20;;;4.70;75.00;;;;;;5051336;28;20029;-70
2021/01/05 05:04:57;;;;;;;4.82;2.95;;;4.60;74.80;;;;;;5050864;28;20033;-70
2021/01/05 05:07:44;;;;;;;7.20;3.08;;;4.60;74.80;;;;;;5050540;28;20120;-70
2021/01/05 05:10:21;;;;;;;4.00;2.30;;;4.60;74.90;;;;;;5051511;28;20028;-72
2021/01/05 05:13:22;;;;;;;4.97;2.72;;;4.60;74.90;;;;;;5050553;28;20178;-70
2021/01/05 05:16:06;;;;;;;7.05;3.03;;;4.60;75.00;;;;;;5048770;28;20033;-70
2021/01/05 05:18:55;;;;;;;3.67;2.38;;;4.50;74.80;;;;;;5050981;28;20032;-70
2021/01/05 05:21:23;;;;;;;3.85;2.67;;;4.50;74.80;;;;;;5048996;28;20030;-79
2021/01/05 05:24:09;;;;;;;4.05;2.63;;;4.50;74.90;;;;;;5032496;28;20043;-75
2021/01/05 05:26:35;;;;;;;5.85;2.50;;;4.50;74.90;;;;;;5049197;28;20500;-69
2021/01/05 05:29:16;;;;;;;2.58;2.17;;;4.40;74.70;;;;;;5049824;28;20041;-70
2021/01/05 05:31:44;;;;;;;6.65;3.13;;;4.40;74.80;;;;;;5049960;28;20060;-76
2021/01/05 05:34:35;;;;;;;4.75;2.83;;;4.40;74.80;;;;;;5050698;28;20029;-70
2021/01/05 05:37:13;;;;;;;6.15;3.42;;;4.30;74.60;;;;;;5049096;28;20079;-71
2021/01/05 05:39:51;;;;;;;4.95;2.97;;;4.30;74.70;;;;;;5050277;28;20051;-69
2021/01/05 05:42:43;;;;;;;2.78;2.22;;;4.30;74.70;;;;;;5050150;28;20488;-70
2021/01/05 05:45:16;;;;;;;4.90;3.03;;;4.30;74.70;;;;;;5031350;28;20029;-74
2021/01/05 05:47:55;;;;;;;5.43;2.03;;;4.30;74.70;;;;;;5041758;28;20048;-73
2021/01/05 05:50:48;;;;;;;6.70;2.38;;;4.20;74.60;;;;;;5026792;28;20488;-74
2021/01/05 05:53:19;;;;;;;3.63;2.35;;;4.20;74.60;;;;;;5042931;28;20567;-76
2021/01/05 05:55:56;;;;;;;5.28;2.67;;;4.20;74.60;;;;;;5046941;28;20453;-69
2021/01/05 05:58:26;;;;;;;7.10;2.10;;;4.20;74.70;;;;;;5045945;28;20037;-69
2021/01/05 06:00:55;;;;;;;3.10;2.45;;;4.20;74.70;;;;;;5044934;28;20029;-70
2021/01/05 06:03:23;;;;;;;4.03;2.65;;;4.10;74.50;;;;;;5038075;28;20061;-70
2021/01/05 06:05:50;;;;;;;3.67;2.03;;;4.10;74.50;;;;;;5034542;28;20463;-73
2021/01/05 06:08:18;;;;;;;5.75;2.20;;;4.10;74.50;;;;;;5044277;28;20653;-71
2021/01/05 06:10:44;;;;;;;3.85;2.47;;;4.10;74.60;;;;;;5044687;28;20033;-70
2021/01/05 06:13:11;;;;;;;2.80;2.35;;;4.10;74.60;;;;;;5044546;28;20025;-77
2021/01/05 06:15:37;;;;;;;6.05;2.60;;;4.10;74.60;;;;;;5042928;28;20470;-69
2021/01/05 06:18:07;;;;;;;5.35;2.15;;;4.10;74.60;;;;;;5042798;28;20043;-70
2021/01/05 06:20:33;;;;;;;6.07;2.92;;;4.10;74.60;;;;;;5044591;28;20025;-73
2021/01/05 06:22:59;;;;;;;7.88;2.80;;;4.00;74.50;;;;;;5041502;28;20037;-75
2021/01/05 06:25:26;;;;;;;4.53;2.58;;;4.10;74.70;;;;;;5044314;28;20029;-73
2021/01/05 06:27:52;;;;;;;6.95;2.72;;;4.00;74.60;;;;;;5044727;28;20044;-79
2021/01/05 06:30:19;;;;;;;7.28;2.63;;;4.10;74.80;;;;;;5044175;28;20051;-71
2021/01/05 06:32:45;;;;;;;4.38;2.85;;;4.10;74.70;;;;;;5044340;28;20109;-70
2021/01/05 06:35:14;;;;;;;3.67;2.15;;;4.20;74.90;;;;;;5044205;28;20839;-71
2021/01/05 06:37:40;;;;;;;4.50;2.88;;;4.20;74.90;;;;;;5044901;28;20128;-75
2021/01/05 06:40:07;;;;;;;3.55;2.35;;;4.20;74.80;;;;;;5044045;28;20128;-71
2021/01/05 06:42:33;;;;;;;6.43;3.28;;;4.20;74.80;;;;;;5043809;28;20040;-71
2021/01/05 06:45:00;;;;;;;4.20;2.40;;;4.20;74.80;;;;;;5043834;28;20024;-71
2021/01/05 06:47:25;;;;;;;5.97;2.78;;;4.20;75.30;;;;;;5044081;28;20578;-70
2021/01/05 06:49:51;;;;;;;3.97;2.67;;;4.20;74.80;;;;;;5044729;28;20476;-70
2021/01/05 06:52:18;;;;;;;4.13;2.22;;;4.20;74.80;;;;;;5043689;28;20036;-73
2021/01/05 06:54:44;;;;;;;4.80;2.45;;;4.20;74.80;;;;;;5026276;28;20021;-71
2021/01/05 06:57:09;;;;;;;4.55;2.58;;;4.20;74.80;;;;;;5044576;28;20443;-71
2021/01/05 06:59:36;;;;;;;7.13;2.38;;;4.20;74.80;;;;;;5043917;28;20040;-71
2021/01/05 07:02:05;;;;;;;3.10;2.45;;;4.20;74.80;;;;;;5044020;28;20119;-71
2021/01/05 07:04:31;;;;;;;4.28;2.40;;;4.20;74.80;;;;;;5043681;28;20131;-72
2021/01/05 07:06:58;;;;;;;4.80;3.08;;;4.20;74.80;;;;;;5043710;28;20079;-70
2021/01/05 07:09:25;;;;;;;6.13;2.30;;;4.20;74.80;;;;;;5044190;28;20442;-70
2021/01/05 07:11:51;;;;;;;2.45;2.10;;;4.20;74.80;;;;;;5043777;28;20507;-70
2021/01/05 07:14:20;;;;;;;4.47;3.00;;;4.20;74.80;;;;;;5043623;28;20082;-71
2021/01/05 07:16:46;;;;;;;6.93;3.30;;;4.20;74.80;;;;;;5043283;28;20343;-71
2021/01/05 07:19:13;;;;;;;4.80;3.40;;;4.20;74.80;;;;;;5043477;28;20043;-71
2021/01/05 07:21:38;;;;;;;4.97;3.42;;;4.20;74.70;;;;;;5040554;28;20027;-71
2021/01/05 07:24:05;;;;;;;5.53;3.72;;;4.20;74.70;;;;;;5043513;28;20033;-72
2021/01/05 07:26:36;;;;;;;7.05;4.00;;;4.20;74.70;;;;;;5042156;28;20409;-71
2021/01/05 07:29:02;;;;;;;6.00;3.03;;;4.20;74.60;;;;;;5041650;28;20056;-71
2021/01/05 07:31:29;;;;;;;4.53;3.10;;;4.20;74.60;;;;;;5042526;28;20499;-71
2021/01/05 07:33:55;;;;;;;7.55;3.85;;;4.20;74.60;;;;;;5044011;28;20029;-71
2021/01/05 07:36:29;;;;;;;8.93;4.05;;;4.20;74.60;;;;;;5043221;28;20094;-72
2021/01/05 07:38:56;;;;;;;5.45;3.78;;;4.20;74.60;;;;;;5040864;28;20605;-72
2021/01/05 07:41:21;;;;;;;4.80;3.20;;;4.20;74.60;;;;;;5035569;28;20021;-71
2021/01/05 07:43:48;;;;;;;6.72;4.07;;;4.10;74.40;;;;;;5042585;28;20033;-76
2021/01/05 07:46:14;;;;;;;4.97;3.53;;;4.10;74.40;;;;;;5043824;28;20079;-71
2021/01/05 07:48:40;;;;;;;9.30;3.80;;;4.10;74.40;;;;;;5038391;28;20060;-72
2021/01/05 07:51:07;;;;;;;8.02;3.72;;;4.10;74.50;;;;;;5039763;28;20032;-70
2021/01/05 07:53:33;;;;;;;5.03;3.90;;;4.10;74.50;;;;;;5044451;28;20120;-71
2021/01/05 07:55:59;;;;;;;5.70;3.90;;;4.10;74.50;;;;;;5045855;28;20033;-71
2021/01/05 07:58:25;;;;;;;4.65;4.00;;;4.10;74.50;;;;;;5047079;28;20079;-71
2021/01/05 08:00:51;;;;;;;7.95;4.45;;;4.00;74.40;;;;;;5047458;28;20029;-70
2021/01/05 08:03:17;;;;;;;4.97;4.28;;;4.00;74.40;;;;;;5047034;28;20040;-76
2021/01/05 08:05:44;;;;;;;9.35;4.38;;;4.00;74.40;;;;;;5046419;28;20028;-71
2021/01/05 08:08:10;;;;;;;4.50;3.45;;;4.00;74.40;;;;;;5046637;28;20048;-71
2021/01/05 08:10:38;;;;;;;5.25;4.07;;;4.00;74.40;;;;;;5046080;28;20441;-71
2021/01/05 08:13:11;;;;;;;7.25;5.00;;;4.00;74.50;;;;;;5046626;28;20104;-73
2021/01/05 08:15:37;;;;;;;5.72;4.22;;;4.00;74.50;;;;;;5047158;28;20554;-70
2021/01/05 08:18:04;;;;;;;4.90;4.40;;;4.00;74.50;;;;;;5046638;28;20032;-71
2021/01/05 08:20:32;;;;;;;10.07;4.13;;;4.00;74.50;;;;;;5046921;28;20025;-72
2021/01/05 08:22:59;;;;;;;7.35;4.18;;;3.90;74.30;;;;;;5046030;28;20522;-73
2021/01/05 08:25:25;;;;;;;6.22;4.03;;;3.90;74.30;;;;;;5045484;28;20108;-70
2021/01/05 08:27:52;;;;;;;5.70;4.25;;;4.00;74.50;;;;;;5044625;28;20469;-72
2021/01/05 08:30:24;;;;;;;5.95;4.57;;;4.00;74.50;;;;;;5046044;28;20564;-71
2021/01/05 08:32:52;;;;;;;5.00;3.88;;;4.00;74.50;;;;;;5046412;28;20380;-71
2021/01/05 08:35:21;;;;;;;6.72;4.90;;;4.00;74.50;;;;;;5044861;28;20032;-70
2021/01/05 08:37:47;;;;;;;6.68;4.53;;;4.00;74.40;;;;;;5046248;28;20106;-71
2021/01/05 08:40:20;;;;;;;9.65;4.88;;;4.00;74.40;;;;;;5046112;28;20481;-70
2021/01/05 08:42:46;;;;;;;7.15;4.25;;;4.00;74.40;;;;;;5045947;28;20064;-72
2021/01/05 08:45:13;;;;;;;4.38;3.95;;;4.00;74.50;;;;;;5045724;28;20068;-71
2021/01/05 08:47:39;;;;;;;9.00;4.47;;;4.00;74.50;;;;;;5046094;28;20157;-71
2021/01/05 08:50:07;;;;;;;6.13;4.35;;;3.90;74.30;;;;;;5046255;28;20390;-71
2021/01/05 08:52:33;;;;;;;8.80;5.03;;;4.00;74.50;;;;;;5044172;28;20048;-71
2021/01/05 08:54:59;;;;;;;6.18;4.15;;;4.00;74.40;;;;;;5045807;28;20033;-72
2021/01/05 08:57:25;;;;;;;6.82;4.28;;;4.00;74.50;;;;;;5046017;28;20081;-73
2021/01/05 08:59:51;;;;;;;5.93;4.72;;;4.00;74.50;;;;;;5043948;28;20041;-72
2021/01/05 09:02:17;;;;;;;4.93;4.30;;;4.00;74.40;;;;;;5046237;28;20466;-73
2021/01/05 09:04:43;;;;;;;6.68;4.90;;;4.00;74.40;;;;;;5044142;28;20505;-75
2021/01/05 09:07:09;;;;;;;8.63;5.18;;;4.10;74.60;;;;;;5044302;28;20036;-73
2021/01/05 09:09:35;;;;;;;5.93;4.38;;;4.00;74.40;;;;;;5045851;28;20037;-72
2021/01/05 09:12:01;;;;;;;6.10;4.80;;;4.00;74.40;;;;;;5045156;28;20037;-72
2021/01/05 09:14:27;;;;;;;4.97;4.22;;;4.00;74.30;;;;;;5045886;28;20043;-77
2021/01/05 09:16:58;;;;;;;6.30;5.18;;;4.10;74.50;;;;;;5045682;28;20127;-73
2021/01/05 09:19:25;;;;;;;6.18;5.13;;;4.10;74.50;;;;;;5044681;28;20037;-73
2021/01/05 09:21:51;;;;;;;7.25;5.53;;;4.10;74.50;;;;;;5044452;28;20032;-74
2021/01/05 09:24:17;;;;;;;7.57;5.25;;;4.10;74.50;;;;;;5043750;28;20238;-73
2021/01/05 09:26:44;;;;;;;9.02;4.78;;;4.10;74.50;;;;;;5045842;28;20052;-75
2021/01/05 09:29:12;;;;;;;7.18;4.78;;;4.20;74.60;;;;;;5044242;28;20479;-74
2021/01/05 09:31:46;;;;;;;14.18;6.05;;;4.20;74.60;;;;;;5044386;28;20507;-73
2021/01/05 09:34:15;;;;;;;8.27;5.18;;;4.20;74.60;;;;;;5043704;28;20029;-72
2021/01/05 09:36:41;;;;;;;6.60;5.20;;;4.30;74.70;;;;;;5045020;28;20385;-72
2021/01/05 09:39:10;;;;;;;6.57;5.68;;;4.30;74.70;;;;;;5044903;28;20448;-73
2021/01/05 09:41:46;;;;;;;6.82;6.03;;;4.30;74.60;;;;;;5042594;28;20033;-72
2021/01/05 09:44:13;;;;;;;5.90;5.30;;;4.30;74.60;;;;;;5026815;28;20041;-72
2021/01/05 09:46:41;;;;;;;6.22;5.20;;;4.40;74.70;;;;;;5044836;28;20033;-76
2021/01/05 09:49:12;;;;;;;9.23;5.72;;;4.40;74.70;;;;;;5044929;28;20123;-72
2021/01/05 09:51:39;;;;;;;6.25;5.65;;;4.50;74.90;;;;;;5044859;28;20476;-75
2021/01/05 09:54:05;;;;;;;9.30;5.88;;;4.50;74.90;;;;;;5044097;28;20029;-73
2021/01/05 09:56:31;;;;;;;8.82;5.50;;;4.50;74.90;;;;;;5044940;28;20148;-78
2021/01/05 09:58:57;;;;;;;10.25;6.15;;;4.50;74.80;;;;;;5044858;28;20512;-73
2021/01/05 10:01:26;;;;;;;7.35;5.72;;;4.60;74.90;;;;;;5044051;28;20514;-72
2021/01/05 10:03:52;;;;;;;6.13;5.47;;;4.60;74.90;;;;;;5043915;28;20189;-73
2021/01/05 10:06:18;;;;;;;9.05;6.25;;;4.60;74.80;;;;;;5044214;28;20036;-75
2021/01/05 10:08:44;;;;;;;8.77;6.25;;;4.70;75.00;;;;;;5044515;28;20064;-73
2021/01/05 10:11:10;;;;;;;8.85;7.07;;;4.70;74.90;;;;;;5045272;28;20056;-72
2021/01/05 10:13:36;;;;;;;7.22;6.03;;;4.70;74.80;;;;;;5043050;28;20379;-80
2021/01/05 10:16:03;;;;;;;9.93;6.53;;;4.70;74.80;;;;;;5042910;28;20033;-85
2021/01/05 10:18:29;;;;;;;6.88;5.90;;;4.80;75.00;;;;;;5046020;28;20120;-72
2021/01/05 10:20:55;;;;;;;6.10;5.47;;;4.80;74.90;;;;;;5044809;28;20155;-75
2021/01/05 10:23:21;;;;;;;7.80;5.70;;;4.80;74.90;;;;;;5025970;28;20248;-72
2021/01/05 10:25:49;;;;;;;7.15;5.25;;;4.80;74.90;;;;;;5043451;28;20032;-75
2021/01/05 10:28:15;;;;;;;9.15;6.00;;;4.90;75.00;;;;;;5044809;28;20086;-72
2021/01/05 10:30:41;;;;;;;8.32;5.95;;;4.90;75.00;;;;;;5043116;28;20052;-75
2021/01/05 10:33:07;;;;;;;7.85;5.93;;;5.00;75.10;;;;;;5044353;28;20489;-72
2021/01/05 10:35:33;;;;;;;6.32;5.72;;;5.00;75.00;;;;;;5043319;28;20078;-81
2021/01/05 10:37:59;;;;;;;7.00;5.63;;;5.00;75.00;;;;;;5045419;28;20570;-74
2021/01/05 10:40:25;;;;;;;7.65;5.93;;;5.10;75.60;;;;;;5042475;28;20140;-74
2021/01/05 10:42:51;;;;;;;6.45;5.82;;;5.10;75.10;;;;;;5042688;28;20025;-73
2021/01/05 10:45:21;;;;;;;7.57;6.03;;;5.10;75.10;;;;;;5043286;28;20025;-73
2021/01/05 10:47:48;;;;;;;7.88;6.10;;;5.20;75.30;;;;;;5025578;28;20051;-73
2021/01/05 10:50:18;;;;;;;9.80;6.65;;;5.30;75.70;;;;;;5044239;28;20456;-75
2021/01/05 10:52:49;;;;;;;8.60;6.53;;;5.40;75.90;;;;;;5044142;28;20032;-76
2021/01/05 10:55:17;;;;;;;9.88;6.03;;;5.40;75.80;;;;;;5044510;28;20394;-73
2021/01/05 10:57:43;;;;;;;7.65;5.88;;;5.50;75.90;;;;;;5042663;28;20117;-75
2021/01/05 11:00:10;;;;;;;7.65;6.60;;;5.60;76.00;;;;;;5042857;28;20175;-74
2021/01/05 11:02:36;;;;;;;7.82;6.00;;;5.60;76.00;;;;;;5043785;28;20025;-74
2021/01/05 11:05:02;;;;;;;9.65;6.80;;;5.70;76.00;;;;;;5042255;28;20029;-73
2021/01/05 11:07:28;;;;;;;5.80;5.28;;;5.70;75.90;;;;;;5042585;28;20033;-73
2021/01/05 11:09:54;;;;;;;6.65;5.95;;;5.70;75.80;;;;;;5042817;28;20041;-74
2021/01/05 11:12:27;;;;;;;8.10;5.95;;;5.80;75.90;;;;;;5043019;28;20064;-75
2021/01/05 11:14:53;;;;;;;7.07;5.88;;;5.80;75.80;;;;;;5043273;28;20109;-73
2021/01/05 11:17:19;;;;;;;10.02;5.97;;;5.80;75.80;;;;;;5044159;28;20121;-74
2021/01/05 11:19:46;;;;;;;7.57;6.63;;;5.80;75.70;;;;;;5043381;28;20312;-73
2021/01/05 11:22:19;;;;;;;7.97;5.93;;;5.80;75.70;;;;;;5042478;28;20475;-74
2021/01/05 11:24:45;;;;;;;7.32;5.57;;;5.80;75.70;;;;;;5042769;28;20029;-74
2021/01/05 11:27:14;;;;;;;8.55;6.35;;;5.80;75.70;;;;;;5045040;28;20112;-73
2021/01/05 11:29:42;;;;;;;6.63;5.93;;;5.80;75.60;;;;;;5047517;28;20488;-75
2021/01/05 11:32:17;;;;;;;9.25;6.53;;;5.80;76.10;;;;;;5046197;28;20091;-75
2021/01/05 11:34:43;;;;;;;7.63;6.30;;;5.80;75.60;;;;;;5047681;28;20033;-75
2021/01/05 11:37:19;;;;;;;6.05;5.45;;;5.80;75.60;;;;;;5047682;28;20028;-74
2021/01/05 11:39:47;;;;;;;9.13;6.00;;;5.70;75.30;;;;;;5047230;28;20029;-73
2021/01/05 11:42:16;;;;;;;6.57;5.95;;;5.80;75.50;;;;;;5046073;28;20051;-74
2021/01/05 11:44:44;;;;;;;11.25;6.90;;;5.70;75.30;;;;;;5045358;28;20102;-74
2021/01/05 11:47:12;;;;;;;6.90;6.20;;;5.70;75.30;;;;;;5046836;28;20053;-74
2021/01/05 11:49:38;;;;;;;11.13;6.85;;;5.70;75.30;;;;;;5045857;28;20132;-80
2021/01/05 11:52:05;;;;;;;8.50;6.93;;;5.70;75.30;;;;;;5045559;28;20029;-74
2021/01/05 11:54:31;;;;;;;7.45;6.18;;;5.70;75.30;;;;;;5045127;28;20025;-75
2021/01/05 11:56:58;;;;;;;9.45;7.18;;;5.70;75.30;;;;;;5046660;28;20107;-75
2021/01/05 11:59:25;;;;;;;6.68;6.03;;;5.70;75.20;;;;;;5046638;28;20033;-73
2021/01/05 12:01:52;;;;;;;6.78;6.13;;;5.80;75.40;;;;;;5044897;28;20032;-73
2021/01/05 12:04:18;;;;;;;9.02;7.03;;;5.70;75.20;;;;;;5047004;28;20028;-73
2021/01/05 12:06:48;;;;;;;7.22;6.43;;;5.70;75.10;;;;;;5046941;28;20029;-74
2021/01/05 12:09:15;;;;;;;10.27;6.43;;;5.70;75.10;;;;;;5045049;28;20435;-75
2021/01/05 12:11:42;;;;;;;8.02;6.80;;;5.70;75.10;;;;;;5028854;28;20029;-74
2021/01/05 12:14:08;;;;;;;11.73;7.35;;;5.70;75.10;;;;;;5028925;28;20045;-75
2021/01/05 12:16:42;;;;;;;6.97;6.28;;;5.80;75.30;;;;;;5046553;28;20115;-75
2021/01/05 12:19:13;;;;;;;7.68;6.88;;;5.70;75.10;;;;;;5045453;28;20040;-75
2021/01/05 12:21:41;;;;;;;8.45;7.05;;;5.70;75.00;;;;;;5012121;28;20127;-74
2021/01/05 12:24:13;;;;;;;6.75;6.15;;;5.80;75.20;;;;;;5045123;28;20053;-74
2021/01/05 12:26:40;;;;;;;7.68;6.35;;;5.70;75.00;;;;;;5045780;28;20035;-75
2021/01/05 12:29:17;;;;;;;8.57;5.90;;;5.70;75.00;;;;;;5046354;28;20451;-74
2021/01/05 12:31:49;;;;;;;9.65;6.75;;;5.70;74.90;;;;;;5045280;28;20028;-74
2021/01/05 12:34:18;;;;;;;9.20;6.60;;;5.80;75.00;;;;;;5044804;28;20127;-75
2021/01/05 12:36:44;;;;;;;10.18;6.35;;;5.80;75.00;;;;;;5045433;28;20433;-74
2021/01/05 12:39:17;;;;;;;8.63;6.55;;;5.70;74.80;;;;;;5046094;28;20029;-75
2021/01/05 12:41:43;;;;;;;9.65;7.50;;;5.80;74.90;;;;;;5046931;28;20036;-75
2021/01/05 12:44:12;;;;;;;6.53;5.93;;;5.80;74.90;;;;;;5028112;28;20084;-75
2021/01/05 12:46:39;;;;;;;7.45;6.75;;;5.70;74.70;;;;;;5045924;28;20124;-74
2021/01/05 12:49:07;;;;;;;7.65;5.97;;;5.70;74.70;;;;;;5046088;28;20049;-73
2021/01/05 12:51:36;;;;;;;8.48;6.47;;;5.70;74.70;;;;;;5045387;28;20036;-73
2021/01/05 12:54:02;;;;;;;7.75;6.05;;;5.70;74.70;;;;;;5044623;28;20051;-73
2021/01/05 12:56:28;;;;;;;9.60;6.95;;;5.70;74.70;;;;;;5027719;28;20062;-73
2021/01/05 12:58:55;;;;;;;9.32;6.53;;;5.70;74.70;;;;;;5043802;28;20396;-73
2021/01/05 13:01:22;;;;;;;7.82;6.68;;;5.60;74.50;;;;;;5045903;28;20491;-73
2021/01/05 13:03:49;;;;;;;6.53;5.47;;;5.60;74.40;;;;;;5045897;28;20101;-73
2021/01/05 13:06:16;;;;;;;8.57;7.25;;;5.70;74.60;;;;;;5045707;28;20037;-73
2021/01/05 13:08:43;;;;;;;7.28;5.30;;;5.70;74.70;;;;;;5045532;28;20044;-74
2021/01/05 13:11:28;;;;;;;7.68;6.32;;;5.60;74.40;;;;;;5045424;28;20029;-74
2021/01/05 13:13:54;;;;;;;7.55;6.18;;;5.70;74.60;;;;;;5045614;28;20086;-73
2021/01/05 13:16:29;;;;;;;6.72;6.00;;;5.70;74.60;;;;;;5045144;28;20031;-73
2021/01/05 13:18:59;;;;;;;9.57;6.10;;;5.70;74.50;;;;;;5043583;28;20488;-73
2021/01/05 13:21:37;;;;;;;6.63;5.88;;;5.70;74.50;;;;;;5045476;28;20421;-74
2021/01/05 13:24:05;;;;;;;8.23;6.25;;;5.70;74.40;;;;;;5043700;28;20120;-73